sensor_id;sensor_type;location;lat;lon;timestamp;P1;durP1;ratioP1;P2;durP2;ratioP2
19006;SDS011;9636;47.382;8.480;2024-02-28T00:01:32;35.87;;;22.53;;
19006;SDS011;9636;47.382;8.480;2024-02-28T00:03:59;39.47;;;23.60;;
19006;SDS011;9636;47.382;8.480;2024-02-28T00:06:25;38.10;;;21.77;;
19006;SDS011;9636;47.382;8.480;2024-02-28T00:11:21;39.87;;;23.00;;
19006;SDS011;9636;47.382;8.480;2024-02-28T00:13:49;37.97;;;22.70;;
19006;SDS011;9636;47.382;8.480;2024-02-28T00:16:16;35.57;;;22.57;;
19006;SDS011;9636;47.382;8.480;2024-02-28T00:18:43;38.20;;;23.50;;
19006;SDS011;9636;47.382;8.480;2024-02-28T00:21:10;41.47;;;23.13;;
19006;SDS011;9636;47.382;8.480;2024-02-28T00:23:37;37.13;;;22.60;;
19006;SDS011;9636;47.382;8.480;2024-02-28T00:26:03;33.57;;;21.50;;
19006;SDS011;9636;47.382;8.480;2024-02-28T00:28:30;40.23;;;22.63;;
19006;SDS011;9636;47.382;8.480;2024-02-28T00:30:58;38.10;;;23.97;;
19006;SDS011;9636;47.382;8.480;2024-02-28T00:33:25;36.60;;;22.77;;
19006;SDS011;9636;47.382;8.480;2024-02-28T00:35:52;38.73;;;23.47;;
19006;SDS011;9636;47.382;8.480;2024-02-28T00:38:19;39.90;;;23.93;;
19006;SDS011;9636;47.382;8.480;2024-02-28T00:40:46;38.93;;;23.73;;
19006;SDS011;9636;47.382;8.480;2024-02-28T00:43:13;36.53;;;22.73;;
19006;SDS011;9636;47.382;8.480;2024-02-28T00:45:39;38.10;;;24.20;;
19006;SDS011;9636;47.382;8.480;2024-02-28T00:48:08;39.43;;;23.03;;
19006;SDS011;9636;47.382;8.480;2024-02-28T00:50:34;37.53;;;23.10;;
19006;SDS011;9636;47.382;8.480;2024-02-28T00:53:01;37.73;;;23.03;;
19006;SDS011;9636;47.382;8.480;2024-02-28T00:55:28;38.40;;;23.80;;
19006;SDS011;9636;47.382;8.480;2024-02-28T00:57:55;36.23;;;23.07;;
19006;SDS011;9636;47.382;8.480;2024-02-28T01:00:22;38.13;;;24.10;;
19006;SDS011;9636;47.382;8.480;2024-02-28T01:02:49;38.97;;;23.33;;
19006;SDS011;9636;47.382;8.480;2024-02-28T01:05:17;40.63;;;23.77;;
19006;SDS011;9636;47.382;8.480;2024-02-28T01:07:44;39.60;;;23.17;;
19006;SDS011;9636;47.382;8.480;2024-02-28T01:10:11;38.60;;;23.30;;
19006;SDS011;9636;47.382;8.480;2024-02-28T01:12:37;36.80;;;22.27;;
19006;SDS011;9636;47.382;8.480;2024-02-28T01:15:04;38.17;;;22.97;;
19006;SDS011;9636;47.382;8.480;2024-02-28T01:17:32;39.17;;;23.17;;
19006;SDS011;9636;47.382;8.480;2024-02-28T01:19:59;38.57;;;23.13;;
19006;SDS011;9636;47.382;8.480;2024-02-28T01:22:27;38.30;;;23.00;;
19006;SDS011;9636;47.382;8.480;2024-02-28T01:24:54;39.33;;;22.90;;
19006;SDS011;9636;47.382;8.480;2024-02-28T01:27:21;36.87;;;22.93;;
19006;SDS011;9636;47.382;8.480;2024-02-28T01:29:48;38.47;;;22.47;;
19006;SDS011;9636;47.382;8.480;2024-02-28T01:32:14;41.33;;;24.13;;
19006;SDS011;9636;47.382;8.480;2024-02-28T01:34:41;37.07;;;23.00;;
19006;SDS011;9636;47.382;8.480;2024-02-28T01:37:08;38.03;;;22.50;;
19006;SDS011;9636;47.382;8.480;2024-02-28T01:39:36;38.43;;;23.63;;
19006;SDS011;9636;47.382;8.480;2024-02-28T01:42:03;37.13;;;22.40;;
19006;SDS011;9636;47.382;8.480;2024-02-28T01:44:30;35.60;;;21.83;;
19006;SDS011;9636;47.382;8.480;2024-02-28T01:46:57;37.90;;;22.87;;
19006;SDS011;9636;47.382;8.480;2024-02-28T01:49:24;34.53;;;21.90;;
19006;SDS011;9636;47.382;8.480;2024-02-28T01:51:51;36.27;;;22.13;;
19006;SDS011;9636;47.382;8.480;2024-02-28T01:54:21;34.57;;;21.83;;
19006;SDS011;9636;47.382;8.480;2024-02-28T01:56:50;36.40;;;21.60;;
19006;SDS011;9636;47.382;8.480;2024-02-28T01:59:16;36.53;;;21.80;;
19006;SDS011;9636;47.382;8.480;2024-02-28T02:01:44;35.37;;;21.13;;
19006;SDS011;9636;47.382;8.480;2024-02-28T02:04:12;37.97;;;21.13;;
19006;SDS011;9636;47.382;8.480;2024-02-28T02:06:38;31.77;;;20.37;;
19006;SDS011;9636;47.382;8.480;2024-02-28T02:09:09;31.50;;;20.77;;
19006;SDS011;9636;47.382;8.480;2024-02-28T02:11:36;34.33;;;20.70;;
19006;SDS011;9636;47.382;8.480;2024-02-28T02:14:05;35.33;;;21.13;;
19006;SDS011;9636;47.382;8.480;2024-02-28T02:16:32;34.27;;;20.53;;
19006;SDS011;9636;47.382;8.480;2024-02-28T02:18:59;31.90;;;20.23;;
19006;SDS011;9636;47.382;8.480;2024-02-28T02:21:26;35.00;;;21.00;;
19006;SDS011;9636;47.382;8.480;2024-02-28T02:23:58;34.03;;;20.87;;
19006;SDS011;9636;47.382;8.480;2024-02-28T02:26:24;35.90;;;21.60;;
19006;SDS011;9636;47.382;8.480;2024-02-28T02:28:51;32.47;;;20.17;;
19006;SDS011;9636;47.382;8.480;2024-02-28T02:31:18;30.77;;;19.33;;
19006;SDS011;9636;47.382;8.480;2024-02-28T02:33:45;33.60;;;20.33;;
19006;SDS011;9636;47.382;8.480;2024-02-28T02:36:12;31.93;;;19.43;;
19006;SDS011;9636;47.382;8.480;2024-02-28T02:38:39;35.03;;;20.10;;
19006;SDS011;9636;47.382;8.480;2024-02-28T02:41:07;37.83;;;20.93;;
19006;SDS011;9636;47.382;8.480;2024-02-28T02:43:34;31.90;;;19.60;;
19006;SDS011;9636;47.382;8.480;2024-02-28T02:46:00;30.20;;;19.43;;
19006;SDS011;9636;47.382;8.480;2024-02-28T02:48:27;35.03;;;19.73;;
19006;SDS011;9636;47.382;8.480;2024-02-28T02:50:54;32.97;;;19.93;;
19006;SDS011;9636;47.382;8.480;2024-02-28T02:53:21;33.30;;;20.00;;
19006;SDS011;9636;47.382;8.480;2024-02-28T02:55:47;32.33;;;19.33;;
19006;SDS011;9636;47.382;8.480;2024-02-28T02:58:16;32.30;;;20.00;;
19006;SDS011;9636;47.382;8.480;2024-02-28T03:00:42;30.77;;;19.50;;
19006;SDS011;9636;47.382;8.480;2024-02-28T03:03:09;33.20;;;20.17;;
19006;SDS011;9636;47.382;8.480;2024-02-28T03:05:36;32.63;;;19.63;;
19006;SDS011;9636;47.382;8.480;2024-02-28T03:08:03;32.70;;;19.97;;
19006;SDS011;9636;47.382;8.480;2024-02-28T03:10:30;32.50;;;19.60;;
19006;SDS011;9636;47.382;8.480;2024-02-28T03:12:57;33.17;;;19.90;;
19006;SDS011;9636;47.382;8.480;2024-02-28T03:15:25;31.23;;;19.27;;
19006;SDS011;9636;47.382;8.480;2024-02-28T03:17:52;33.03;;;19.10;;
19006;SDS011;9636;47.382;8.480;2024-02-28T03:20:19;32.17;;;19.40;;
19006;SDS011;9636;47.382;8.480;2024-02-28T03:22:46;31.70;;;19.77;;
19006;SDS011;9636;47.382;8.480;2024-02-28T03:25:13;33.37;;;18.97;;
19006;SDS011;9636;47.382;8.480;2024-02-28T03:27:40;31.17;;;19.17;;
19006;SDS011;9636;47.382;8.480;2024-02-28T03:30:07;31.13;;;19.60;;
19006;SDS011;9636;47.382;8.480;2024-02-28T03:32:35;33.00;;;19.10;;
19006;SDS011;9636;47.382;8.480;2024-02-28T03:35:02;31.60;;;19.07;;
19006;SDS011;9636;47.382;8.480;2024-02-28T03:37:30;31.37;;;20.17;;
19006;SDS011;9636;47.382;8.480;2024-02-28T03:39:57;31.43;;;18.67;;
19006;SDS011;9636;47.382;8.480;2024-02-28T03:42:24;33.47;;;19.03;;
19006;SDS011;9636;47.382;8.480;2024-02-28T03:44:51;29.50;;;18.40;;
19006;SDS011;9636;47.382;8.480;2024-02-28T03:47:18;28.97;;;17.77;;
19006;SDS011;9636;47.382;8.480;2024-02-28T03:49:46;29.83;;;19.03;;
19006;SDS011;9636;47.382;8.480;2024-02-28T03:52:12;31.57;;;19.07;;
19006;SDS011;9636;47.382;8.480;2024-02-28T03:54:41;30.10;;;18.03;;
19006;SDS011;9636;47.382;8.480;2024-02-28T03:57:08;28.10;;;17.47;;
19006;SDS011;9636;47.382;8.480;2024-02-28T03:59:35;30.23;;;18.00;;
19006;SDS011;9636;47.382;8.480;2024-02-28T04:02:02;28.63;;;17.13;;
19006;SDS011;9636;47.382;8.480;2024-02-28T04:04:29;30.53;;;17.77;;
19006;SDS011;9636;47.382;8.480;2024-02-28T04:06:57;29.03;;;17.13;;
19006;SDS011;9636;47.382;8.480;2024-02-28T04:09:24;27.17;;;16.93;;
19006;SDS011;9636;47.382;8.480;2024-02-28T04:11:51;27.60;;;16.87;;
19006;SDS011;9636;47.382;8.480;2024-02-28T04:14:18;28.67;;;17.50;;
19006;SDS011;9636;47.382;8.480;2024-02-28T04:16:44;27.30;;;16.90;;
19006;SDS011;9636;47.382;8.480;2024-02-28T04:19:12;30.03;;;17.63;;
19006;SDS011;9636;47.382;8.480;2024-02-28T04:21:39;28.30;;;17.17;;
19006;SDS011;9636;47.382;8.480;2024-02-28T04:24:07;30.57;;;17.70;;
19006;SDS011;9636;47.382;8.480;2024-02-28T04:26:34;29.93;;;17.47;;
19006;SDS011;9636;47.382;8.480;2024-02-28T04:29:01;29.10;;;17.47;;
19006;SDS011;9636;47.382;8.480;2024-02-28T04:31:30;27.53;;;16.13;;
19006;SDS011;9636;47.382;8.480;2024-02-28T04:33:57;27.57;;;16.57;;
19006;SDS011;9636;47.382;8.480;2024-02-28T04:36:23;28.10;;;16.90;;
19006;SDS011;9636;47.382;8.480;2024-02-28T04:38:50;27.83;;;16.97;;
19006;SDS011;9636;47.382;8.480;2024-02-28T04:41:19;27.10;;;16.63;;
19006;SDS011;9636;47.382;8.480;2024-02-28T04:43:45;28.27;;;16.80;;
19006;SDS011;9636;47.382;8.480;2024-02-28T04:46:12;25.57;;;16.00;;
19006;SDS011;9636;47.382;8.480;2024-02-28T04:48:39;25.70;;;15.97;;
19006;SDS011;9636;47.382;8.480;2024-02-28T04:51:06;25.33;;;15.80;;
19006;SDS011;9636;47.382;8.480;2024-02-28T04:53:32;27.50;;;16.70;;
19006;SDS011;9636;47.382;8.480;2024-02-28T04:55:59;28.83;;;16.80;;
19006;SDS011;9636;47.382;8.480;2024-02-28T04:58:27;27.00;;;16.70;;
19006;SDS011;9636;47.382;8.480;2024-02-28T05:00:54;29.40;;;16.60;;
19006;SDS011;9636;47.382;8.480;2024-02-28T05:03:21;26.00;;;16.23;;
19006;SDS011;9636;47.382;8.480;2024-02-28T05:05:49;25.70;;;15.80;;
19006;SDS011;9636;47.382;8.480;2024-02-28T05:08:18;26.43;;;15.53;;
19006;SDS011;9636;47.382;8.480;2024-02-28T05:10:46;27.10;;;16.33;;
19006;SDS011;9636;47.382;8.480;2024-02-28T05:13:13;27.43;;;16.23;;
19006;SDS011;9636;47.382;8.480;2024-02-28T05:15:41;33.10;;;16.83;;
19006;SDS011;9636;47.382;8.480;2024-02-28T05:18:08;28.17;;;16.10;;
19006;SDS011;9636;47.382;8.480;2024-02-28T05:20:34;28.10;;;16.17;;
19006;SDS011;9636;47.382;8.480;2024-02-28T05:23:01;26.37;;;16.30;;
19006;SDS011;9636;47.382;8.480;2024-02-28T05:25:28;25.47;;;15.33;;
19006;SDS011;9636;47.382;8.480;2024-02-28T05:27:55;28.23;;;14.77;;
19006;SDS011;9636;47.382;8.480;2024-02-28T05:30:22;26.77;;;16.40;;
19006;SDS011;9636;47.382;8.480;2024-02-28T05:32:50;26.20;;;15.90;;
19006;SDS011;9636;47.382;8.480;2024-02-28T05:35:17;27.63;;;16.03;;
19006;SDS011;9636;47.382;8.480;2024-02-28T05:37:44;26.50;;;17.00;;
19006;SDS011;9636;47.382;8.480;2024-02-28T05:40:11;27.40;;;16.37;;
19006;SDS011;9636;47.382;8.480;2024-02-28T05:42:38;26.50;;;16.77;;
19006;SDS011;9636;47.382;8.480;2024-02-28T05:45:07;29.97;;;16.90;;
19006;SDS011;9636;47.382;8.480;2024-02-28T05:47:35;29.10;;;16.77;;
19006;SDS011;9636;47.382;8.480;2024-02-28T05:50:04;28.90;;;17.03;;
19006;SDS011;9636;47.382;8.480;2024-02-28T05:52:31;28.67;;;16.97;;
19006;SDS011;9636;47.382;8.480;2024-02-28T05:54:58;29.77;;;16.97;;
19006;SDS011;9636;47.382;8.480;2024-02-28T05:57:25;27.27;;;16.93;;
19006;SDS011;9636;47.382;8.480;2024-02-28T05:59:51;29.40;;;17.27;;
19006;SDS011;9636;47.382;8.480;2024-02-28T06:02:18;29.27;;;17.23;;
19006;SDS011;9636;47.382;8.480;2024-02-28T06:04:45;27.53;;;16.93;;
19006;SDS011;9636;47.382;8.480;2024-02-28T06:07:14;27.50;;;16.57;;
19006;SDS011;9636;47.382;8.480;2024-02-28T06:09:40;29.00;;;16.23;;
19006;SDS011;9636;47.382;8.480;2024-02-28T06:12:07;26.67;;;16.40;;
19006;SDS011;9636;47.382;8.480;2024-02-28T06:14:34;29.70;;;16.07;;
19006;SDS011;9636;47.382;8.480;2024-02-28T06:17:01;28.67;;;16.80;;
19006;SDS011;9636;47.382;8.480;2024-02-28T06:19:28;31.50;;;16.63;;
19006;SDS011;9636;47.382;8.480;2024-02-28T06:21:54;27.53;;;15.87;;
19006;SDS011;9636;47.382;8.480;2024-02-28T06:24:22;24.17;;;15.33;;
19006;SDS011;9636;47.382;8.480;2024-02-28T06:26:49;28.23;;;16.47;;
19006;SDS011;9636;47.382;8.480;2024-02-28T06:29:16;27.10;;;16.40;;
19006;SDS011;9636;47.382;8.480;2024-02-28T06:31:43;28.97;;;17.03;;
19006;SDS011;9636;47.382;8.480;2024-02-28T06:34:10;25.77;;;14.93;;
19006;SDS011;9636;47.382;8.480;2024-02-28T06:36:37;24.30;;;14.73;;
19006;SDS011;9636;47.382;8.480;2024-02-28T06:39:03;24.17;;;15.00;;
19006;SDS011;9636;47.382;8.480;2024-02-28T06:41:31;23.47;;;14.73;;
19006;SDS011;9636;47.382;8.480;2024-02-28T06:43:58;29.07;;;15.53;;
19006;SDS011;9636;47.382;8.480;2024-02-28T06:46:25;23.33;;;14.83;;
19006;SDS011;9636;47.382;8.480;2024-02-28T06:48:52;25.10;;;15.27;;
19006;SDS011;9636;47.382;8.480;2024-02-28T06:51:19;26.07;;;14.40;;
19006;SDS011;9636;47.382;8.480;2024-02-28T06:53:45;25.13;;;15.03;;
19006;SDS011;9636;47.382;8.480;2024-02-28T06:56:12;23.30;;;14.07;;
19006;SDS011;9636;47.382;8.480;2024-02-28T06:58:40;23.87;;;15.03;;
19006;SDS011;9636;47.382;8.480;2024-02-28T07:01:07;24.20;;;14.17;;
19006;SDS011;9636;47.382;8.480;2024-02-28T07:03:34;23.17;;;14.00;;
19006;SDS011;9636;47.382;8.480;2024-02-28T07:06:01;25.50;;;14.13;;
19006;SDS011;9636;47.382;8.480;2024-02-28T07:08:27;23.93;;;14.47;;
19006;SDS011;9636;47.382;8.480;2024-02-28T07:10:54;21.87;;;13.40;;
19006;SDS011;9636;47.382;8.480;2024-02-28T07:13:21;20.40;;;12.63;;
19006;SDS011;9636;47.382;8.480;2024-02-28T07:15:49;21.27;;;13.90;;
19006;SDS011;9636;47.382;8.480;2024-02-28T07:18:16;24.90;;;13.80;;
19006;SDS011;9636;47.382;8.480;2024-02-28T07:20:42;20.67;;;12.90;;
19006;SDS011;9636;47.382;8.480;2024-02-28T07:23:09;21.53;;;13.23;;
19006;SDS011;9636;47.382;8.480;2024-02-28T07:25:36;20.43;;;12.67;;
19006;SDS011;9636;47.382;8.480;2024-02-28T07:28:03;19.47;;;12.03;;
19006;SDS011;9636;47.382;8.480;2024-02-28T07:30:30;20.40;;;12.57;;
19006;SDS011;9636;47.382;8.480;2024-02-28T07:32:59;19.70;;;12.70;;
19006;SDS011;9636;47.382;8.480;2024-02-28T07:35:25;20.20;;;13.10;;
19006;SDS011;9636;47.382;8.480;2024-02-28T07:37:52;20.63;;;11.63;;
19006;SDS011;9636;47.382;8.480;2024-02-28T07:40:19;21.77;;;12.43;;
19006;SDS011;9636;47.382;8.480;2024-02-28T07:42:46;21.77;;;12.27;;
19006;SDS011;9636;47.382;8.480;2024-02-28T07:45:13;19.50;;;12.20;;
19006;SDS011;9636;47.382;8.480;2024-02-28T07:47:39;21.10;;;12.20;;
19006;SDS011;9636;47.382;8.480;2024-02-28T07:50:08;19.63;;;12.17;;
19006;SDS011;9636;47.382;8.480;2024-02-28T07:52:35;22.50;;;12.20;;
19006;SDS011;9636;47.382;8.480;2024-02-28T07:55:02;19.87;;;11.83;;
19006;SDS011;9636;47.382;8.480;2024-02-28T07:57:30;21.97;;;12.53;;
19006;SDS011;9636;47.382;8.480;2024-02-28T07:59:58;20.37;;;11.83;;
19006;SDS011;9636;47.382;8.480;2024-02-28T08:02:25;20.13;;;12.70;;
19006;SDS011;9636;47.382;8.480;2024-02-28T08:04:51;20.70;;;12.00;;
19006;SDS011;9636;47.382;8.480;2024-02-28T08:07:20;18.70;;;12.17;;
19006;SDS011;9636;47.382;8.480;2024-02-28T08:09:46;24.43;;;12.63;;
19006;SDS011;9636;47.382;8.480;2024-02-28T08:12:13;19.67;;;12.53;;
19006;SDS011;9636;47.382;8.480;2024-02-28T08:14:40;21.13;;;12.50;;
19006;SDS011;9636;47.382;8.480;2024-02-28T08:17:07;20.57;;;12.17;;
19006;SDS011;9636;47.382;8.480;2024-02-28T08:19:33;20.30;;;12.00;;
19006;SDS011;9636;47.382;8.480;2024-02-28T08:22:00;19.63;;;12.43;;
19006;SDS011;9636;47.382;8.480;2024-02-28T08:24:29;22.27;;;12.20;;
19006;SDS011;9636;47.382;8.480;2024-02-28T08:26:55;20.13;;;12.23;;
19006;SDS011;9636;47.382;8.480;2024-02-28T08:29:22;19.20;;;11.63;;
19006;SDS011;9636;47.382;8.480;2024-02-28T08:31:49;19.70;;;11.87;;
19006;SDS011;9636;47.382;8.480;2024-02-28T08:34:17;20.67;;;12.23;;
19006;SDS011;9636;47.382;8.480;2024-02-28T08:36:43;20.40;;;12.37;;
19006;SDS011;9636;47.382;8.480;2024-02-28T08:39:10;22.83;;;12.30;;
19006;SDS011;9636;47.382;8.480;2024-02-28T08:41:38;20.90;;;12.57;;
19006;SDS011;9636;47.382;8.480;2024-02-28T08:44:05;20.23;;;12.03;;
19006;SDS011;9636;47.382;8.480;2024-02-28T08:46:32;19.33;;;11.80;;
19006;SDS011;9636;47.382;8.480;2024-02-28T08:48:59;21.30;;;12.17;;
19006;SDS011;9636;47.382;8.480;2024-02-28T08:51:25;20.80;;;12.77;;
19006;SDS011;9636;47.382;8.480;2024-02-28T08:53:53;19.87;;;12.70;;
19006;SDS011;9636;47.382;8.480;2024-02-28T08:56:20;22.30;;;13.13;;
19006;SDS011;9636;47.382;8.480;2024-02-28T08:58:48;18.77;;;12.20;;
19006;SDS011;9636;47.382;8.480;2024-02-28T09:01:15;20.90;;;12.37;;
19006;SDS011;9636;47.382;8.480;2024-02-28T09:03:42;21.50;;;13.10;;
19006;SDS011;9636;47.382;8.480;2024-02-28T09:06:09;21.33;;;13.30;;
19006;SDS011;9636;47.382;8.480;2024-02-28T09:08:36;19.37;;;12.67;;
19006;SDS011;9636;47.382;8.480;2024-02-28T09:11:03;19.30;;;12.50;;
19006;SDS011;9636;47.382;8.480;2024-02-28T09:13:30;25.83;;;13.53;;
19006;SDS011;9636;47.382;8.480;2024-02-28T09:15:58;19.73;;;12.67;;
19006;SDS011;9636;47.382;8.480;2024-02-28T09:18:25;20.90;;;13.07;;
19006;SDS011;9636;47.382;8.480;2024-02-28T09:20:52;22.50;;;13.50;;
19006;SDS011;9636;47.382;8.480;2024-02-28T09:23:19;21.87;;;13.20;;
19006;SDS011;9636;47.382;8.480;2024-02-28T09:25:46;24.43;;;13.60;;
19006;SDS011;9636;47.382;8.480;2024-02-28T09:28:12;20.63;;;12.80;;
19006;SDS011;9636;47.382;8.480;2024-02-28T09:30:41;23.50;;;13.87;;
19006;SDS011;9636;47.382;8.480;2024-02-28T09:33:09;21.63;;;12.93;;
19006;SDS011;9636;47.382;8.480;2024-02-28T09:35:37;21.27;;;13.10;;
19006;SDS011;9636;47.382;8.480;2024-02-28T09:38:03;25.47;;;14.37;;
19006;SDS011;9636;47.382;8.480;2024-02-28T09:40:30;21.07;;;13.00;;
19006;SDS011;9636;47.382;8.480;2024-02-28T09:43:00;20.07;;;12.43;;
19006;SDS011;9636;47.382;8.480;2024-02-28T09:45:28;23.13;;;13.37;;
19006;SDS011;9636;47.382;8.480;2024-02-28T09:47:57;19.33;;;12.43;;
19006;SDS011;9636;47.382;8.480;2024-02-28T09:50:26;19.90;;;13.40;;
19006;SDS011;9636;47.382;8.480;2024-02-28T09:52:53;21.43;;;13.03;;
19006;SDS011;9636;47.382;8.480;2024-02-28T09:55:20;25.17;;;14.37;;
19006;SDS011;9636;47.382;8.480;2024-02-28T09:57:48;25.70;;;14.80;;
19006;SDS011;9636;47.382;8.480;2024-02-28T10:00:17;24.40;;;13.73;;
19006;SDS011;9636;47.382;8.480;2024-02-28T10:02:46;23.47;;;13.87;;
19006;SDS011;9636;47.382;8.480;2024-02-28T10:05:14;23.33;;;13.63;;
19006;SDS011;9636;47.382;8.480;2024-02-28T10:07:44;24.13;;;13.87;;
19006;SDS011;9636;47.382;8.480;2024-02-28T10:10:11;21.53;;;13.90;;
19006;SDS011;9636;47.382;8.480;2024-02-28T10:12:40;23.30;;;13.97;;
19006;SDS011;9636;47.382;8.480;2024-02-28T10:15:09;26.97;;;15.63;;
19006;SDS011;9636;47.382;8.480;2024-02-28T10:17:36;24.43;;;14.87;;
19006;SDS011;9636;47.382;8.480;2024-02-28T10:20:03;24.60;;;14.47;;
19006;SDS011;9636;47.382;8.480;2024-02-28T10:22:33;28.13;;;15.50;;
19006;SDS011;9636;47.382;8.480;2024-02-28T10:25:02;25.27;;;13.63;;
19006;SDS011;9636;47.382;8.480;2024-02-28T10:27:31;27.93;;;15.73;;
19006;SDS011;9636;47.382;8.480;2024-02-28T10:29:59;28.80;;;15.50;;
19006;SDS011;9636;47.382;8.480;2024-02-28T10:32:26;25.03;;;14.97;;
19006;SDS011;9636;47.382;8.480;2024-02-28T10:34:53;27.00;;;15.93;;
19006;SDS011;9636;47.382;8.480;2024-02-28T10:37:20;26.03;;;14.30;;
19006;SDS011;9636;47.382;8.480;2024-02-28T10:39:48;26.33;;;15.00;;
19006;SDS011;9636;47.382;8.480;2024-02-28T10:42:18;23.67;;;14.83;;
19006;SDS011;9636;47.382;8.480;2024-02-28T10:44:47;25.23;;;15.10;;
19006;SDS011;9636;47.382;8.480;2024-02-28T10:47:17;26.77;;;15.67;;
19006;SDS011;9636;47.382;8.480;2024-02-28T10:49:44;29.57;;;15.40;;
19006;SDS011;9636;47.382;8.480;2024-02-28T10:52:11;28.37;;;15.80;;
19006;SDS011;9636;47.382;8.480;2024-02-28T10:54:39;28.47;;;16.23;;
19006;SDS011;9636;47.382;8.480;2024-02-28T10:57:08;25.40;;;15.70;;
19006;SDS011;9636;47.382;8.480;2024-02-28T10:59:39;28.77;;;15.67;;
19006;SDS011;9636;47.382;8.480;2024-02-28T11:02:09;27.80;;;15.77;;
19006;SDS011;9636;47.382;8.480;2024-02-28T11:04:35;27.53;;;16.53;;
19006;SDS011;9636;47.382;8.480;2024-02-28T11:07:03;26.80;;;15.93;;
19006;SDS011;9636;47.382;8.480;2024-02-28T11:09:30;27.57;;;16.37;;
19006;SDS011;9636;47.382;8.480;2024-02-28T11:11:57;27.40;;;15.83;;
19006;SDS011;9636;47.382;8.480;2024-02-28T11:14:24;26.77;;;15.87;;
19006;SDS011;9636;47.382;8.480;2024-02-28T11:17:02;27.03;;;15.93;;
19006;SDS011;9636;47.382;8.480;2024-02-28T11:19:30;23.77;;;14.23;;
19006;SDS011;9636;47.382;8.480;2024-02-28T11:21:58;26.50;;;15.43;;
19006;SDS011;9636;47.382;8.480;2024-02-28T11:24:28;24.80;;;14.67;;
19006;SDS011;9636;47.382;8.480;2024-02-28T11:26:56;26.50;;;15.43;;
19006;SDS011;9636;47.382;8.480;2024-02-28T11:29:24;24.20;;;13.90;;
19006;SDS011;9636;47.382;8.480;2024-02-28T11:31:52;25.77;;;15.37;;
19006;SDS011;9636;47.382;8.480;2024-02-28T11:34:21;25.60;;;14.93;;
19006;SDS011;9636;47.382;8.480;2024-02-28T11:36:48;25.60;;;14.97;;
19006;SDS011;9636;47.382;8.480;2024-02-28T11:39:15;25.80;;;15.27;;
19006;SDS011;9636;47.382;8.480;2024-02-28T11:41:43;26.00;;;15.53;;
19006;SDS011;9636;47.382;8.480;2024-02-28T11:44:11;25.13;;;15.20;;
19006;SDS011;9636;47.382;8.480;2024-02-28T11:46:42;26.50;;;14.80;;
19006;SDS011;9636;47.382;8.480;2024-02-28T11:49:10;30.00;;;16.83;;
19006;SDS011;9636;47.382;8.480;2024-02-28T11:51:39;33.43;;;18.10;;
19006;SDS011;9636;47.382;8.480;2024-02-28T11:54:07;29.10;;;17.10;;
19006;SDS011;9636;47.382;8.480;2024-02-28T11:56:35;31.40;;;18.17;;
19006;SDS011;9636;47.382;8.480;2024-02-28T11:59:02;30.30;;;17.67;;
19006;SDS011;9636;47.382;8.480;2024-02-28T12:01:33;29.00;;;16.27;;
19006;SDS011;9636;47.382;8.480;2024-02-28T12:04:01;33.40;;;18.13;;
19006;SDS011;9636;47.382;8.480;2024-02-28T12:06:29;29.83;;;17.03;;
19006;SDS011;9636;47.382;8.480;2024-02-28T12:08:57;28.00;;;16.97;;
19006;SDS011;9636;47.382;8.480;2024-02-28T12:11:24;28.33;;;16.43;;
19006;SDS011;9636;47.382;8.480;2024-02-28T12:13:53;28.40;;;16.90;;
19006;SDS011;9636;47.382;8.480;2024-02-28T12:16:22;28.70;;;16.87;;
19006;SDS011;9636;47.382;8.480;2024-02-28T12:18:49;29.70;;;17.03;;
19006;SDS011;9636;47.382;8.480;2024-02-28T12:23:58;28.13;;;16.87;;
19006;SDS011;9636;47.382;8.480;2024-02-28T12:26:26;29.23;;;17.50;;
19006;SDS011;9636;47.382;8.480;2024-02-28T12:28:53;30.07;;;17.40;;
19006;SDS011;9636;47.382;8.480;2024-02-28T12:31:20;30.23;;;16.93;;
19006;SDS011;9636;47.382;8.480;2024-02-28T12:33:48;29.73;;;16.80;;
19006;SDS011;9636;47.382;8.480;2024-02-28T12:36:14;26.87;;;16.90;;
19006;SDS011;9636;47.382;8.480;2024-02-28T12:38:41;32.63;;;17.33;;
19006;SDS011;9636;47.382;8.480;2024-02-28T12:41:09;31.03;;;17.73;;
19006;SDS011;9636;47.382;8.480;2024-02-28T12:43:36;28.27;;;16.67;;
19006;SDS011;9636;47.382;8.480;2024-02-28T12:46:04;28.70;;;16.50;;
19006;SDS011;9636;47.382;8.480;2024-02-28T12:48:31;32.27;;;17.13;;
19006;SDS011;9636;47.382;8.480;2024-02-28T12:51:03;28.33;;;17.20;;
19006;SDS011;9636;47.382;8.480;2024-02-28T12:53:31;29.17;;;16.77;;
19006;SDS011;9636;47.382;8.480;2024-02-28T12:55:58;28.70;;;16.67;;
19006;SDS011;9636;47.382;8.480;2024-02-28T12:58:26;30.77;;;17.33;;
19006;SDS011;9636;47.382;8.480;2024-02-28T13:00:53;33.67;;;18.17;;
19006;SDS011;9636;47.382;8.480;2024-02-28T13:03:19;30.83;;;17.90;;
19006;SDS011;9636;47.382;8.480;2024-02-28T13:05:46;31.17;;;18.20;;
19006;SDS011;9636;47.382;8.480;2024-02-28T13:08:13;32.07;;;18.53;;
19006;SDS011;9636;47.382;8.480;2024-02-28T13:10:39;29.53;;;18.67;;
19006;SDS011;9636;47.382;8.480;2024-02-28T13:13:06;32.80;;;17.90;;
19006;SDS011;9636;47.382;8.480;2024-02-28T13:15:34;29.60;;;18.30;;
19006;SDS011;9636;47.382;8.480;2024-02-28T13:18:01;30.63;;;18.50;;
19006;SDS011;9636;47.382;8.480;2024-02-28T13:20:33;28.53;;;17.33;;
19006;SDS011;9636;47.382;8.480;2024-02-28T13:22:59;33.87;;;17.73;;
19006;SDS011;9636;47.382;8.480;2024-02-28T13:25:26;30.30;;;18.83;;
19006;SDS011;9636;47.382;8.480;2024-02-28T13:27:53;40.90;;;27.30;;
19006;SDS011;9636;47.382;8.480;2024-02-28T13:30:20;29.97;;;17.60;;
19006;SDS011;9636;47.382;8.480;2024-02-28T13:32:48;31.60;;;17.23;;
19006;SDS011;9636;47.382;8.480;2024-02-28T13:35:16;30.97;;;18.07;;
19006;SDS011;9636;47.382;8.480;2024-02-28T13:37:43;28.53;;;17.70;;
19006;SDS011;9636;47.382;8.480;2024-02-28T13:40:09;28.03;;;16.73;;
19006;SDS011;9636;47.382;8.480;2024-02-28T13:42:36;29.13;;;17.97;;
19006;SDS011;9636;47.382;8.480;2024-02-28T13:45:04;30.27;;;17.37;;
19006;SDS011;9636;47.382;8.480;2024-02-28T13:47:32;31.73;;;18.50;;
19006;SDS011;9636;47.382;8.480;2024-02-28T13:50:01;28.83;;;17.23;;
19006;SDS011;9636;47.382;8.480;2024-02-28T13:52:27;27.50;;;17.27;;
19006;SDS011;9636;47.382;8.480;2024-02-28T13:54:54;29.97;;;17.77;;
19006;SDS011;9636;47.382;8.480;2024-02-28T13:57:21;28.13;;;16.63;;
19006;SDS011;9636;47.382;8.480;2024-02-28T13:59:48;29.87;;;18.10;;
19006;SDS011;9636;47.382;8.480;2024-02-28T14:02:18;35.20;;;17.93;;
19006;SDS011;9636;47.382;8.480;2024-02-28T14:04:45;30.27;;;17.57;;
19006;SDS011;9636;47.382;8.480;2024-02-28T14:07:15;32.50;;;17.93;;
19006;SDS011;9636;47.382;8.480;2024-02-28T14:09:42;30.00;;;16.90;;
19006;SDS011;9636;47.382;8.480;2024-02-28T14:12:09;34.67;;;17.87;;
19006;SDS011;9636;47.382;8.480;2024-02-28T14:14:37;32.60;;;17.83;;
19006;SDS011;9636;47.382;8.480;2024-02-28T14:17:04;33.60;;;18.40;;
19006;SDS011;9636;47.382;8.480;2024-02-28T14:19:32;31.20;;;17.57;;
19006;SDS011;9636;47.382;8.480;2024-02-28T14:22:00;33.90;;;17.30;;
19006;SDS011;9636;47.382;8.480;2024-02-28T14:24:28;29.77;;;17.30;;
19006;SDS011;9636;47.382;8.480;2024-02-28T14:26:55;31.47;;;18.03;;
19006;SDS011;9636;47.382;8.480;2024-02-28T14:29:22;27.27;;;16.90;;
19006;SDS011;9636;47.382;8.480;2024-02-28T14:31:48;31.13;;;17.23;;
19006;SDS011;9636;47.382;8.480;2024-02-28T14:34:15;33.93;;;17.93;;
19006;SDS011;9636;47.382;8.480;2024-02-28T14:36:42;28.23;;;16.73;;
19006;SDS011;9636;47.382;8.480;2024-02-28T14:39:09;30.50;;;17.53;;